sensor_id;sensor_type;location;lat;lon;timestamp;temperature;humidity
16513;DHT22;8369;48.030;11.598;2024-01-27T00:01:37;4.20;99.90
16513;DHT22;8369;48.030;11.598;2024-01-27T00:04:03;4.20;99.90
16513;DHT22;8369;48.030;11.598;2024-01-27T00:06:29;4.20;99.90
16513;DHT22;8369;48.030;11.598;2024-01-27T00:08:57;4.20;99.90
16513;DHT22;8369;48.030;11.598;2024-01-27T00:11:23;4.20;99.90
16513;DHT22;8369;48.030;11.598;2024-01-27T00:13:50;4.20;99.90
16513;DHT22;8369;48.030;11.598;2024-01-27T00:16:17;4.20;99.90
16513;DHT22;8369;48.030;11.598;2024-01-27T00:18:43;4.10;99.90
16513;DHT22;8369;48.030;11.598;2024-01-27T00:21:10;4.10;99.90
16513;DHT22;8369;48.030;11.598;2024-01-27T00:23:36;4.10;99.90
16513;DHT22;8369;48.030;11.598;2024-01-27T00:26:03;4.10;99.90
16513;DHT22;8369;48.030;11.598;2024-01-27T00:28:30;4.20;99.90
16513;DHT22;8369;48.030;11.598;2024-01-27T00:30:57;4.20;99.90
16513;DHT22;8369;48.030;11.598;2024-01-27T00:33:24;4.20;99.90
16513;DHT22;8369;48.030;11.598;2024-01-27T00:35:50;4.20;99.90
16513;DHT22;8369;48.030;11.598;2024-01-27T00:38:15;4.20;99.90
16513;DHT22;8369;48.030;11.598;2024-01-27T00:40:42;4.20;99.90
16513;DHT22;8369;48.030;11.598;2024-01-27T00:43:08;4.20;99.90
16513;DHT22;8369;48.030;11.598;2024-01-27T00:45:34;4.20;99.90
16513;DHT22;8369;48.030;11.598;2024-01-27T00:48:01;4.20;99.90
16513;DHT22;8369;48.030;11.598;2024-01-27T00:50:30;4.20;99.90
16513;DHT22;8369;48.030;11.598;2024-01-27T00:52:56;4.20;99.90
16513;DHT22;8369;48.030;11.598;2024-01-27T00:55:23;4.10;99.90
16513;DHT22;8369;48.030;11.598;2024-01-27T00:57:49;4.10;99.90
16513;DHT22;8369;48.030;11.598;2024-01-27T01:00:17;4.10;99.90
16513;DHT22;8369;48.030;11.598;2024-01-27T01:02:43;4.10;99.90
16513;DHT22;8369;48.030;11.598;2024-01-27T01:05:10;4.10;99.90
16513;DHT22;8369;48.030;11.598;2024-01-27T01:07:36;4.10;99.90
16513;DHT22;8369;48.030;11.598;2024-01-27T01:10:02;4.10;99.90
16513;DHT22;8369;48.030;11.598;2024-01-27T01:12:28;4.10;99.90
16513;DHT22;8369;48.030;11.598;2024-01-27T01:14:55;4.10;99.90
16513;DHT22;8369;48.030;11.598;2024-01-27T01:17:21;4.10;99.90
16513;DHT22;8369;48.030;11.598;2024-01-27T01:19:48;4.10;99.90
16513;DHT22;8369;48.030;11.598;2024-01-27T01:22:14;4.10;99.90
16513;DHT22;8369;48.030;11.598;2024-01-27T01:24:41;4.10;99.90
16513;DHT22;8369;48.030;11.598;2024-01-27T01:27:07;4.10;99.90
16513;DHT22;8369;48.030;11.598;2024-01-27T01:29:34;4.10;99.90
16513;DHT22;8369;48.030;11.598;2024-01-27T01:32:00;4.10;99.90
16513;DHT22;8369;48.030;11.598;2024-01-27T01:34:29;4.10;99.90
16513;DHT22;8369;48.030;11.598;2024-01-27T01:36:57;4.10;99.90
16513;DHT22;8369;48.030;11.598;2024-01-27T01:39:23;4.10;99.90
16513;DHT22;8369;48.030;11.598;2024-01-27T01:41:50;4.10;99.90
16513;DHT22;8369;48.030;11.598;2024-01-27T01:44:16;4.10;99.90
16513;DHT22;8369;48.030;11.598;2024-01-27T01:46:43;4.00;99.90
16513;DHT22;8369;48.030;11.598;2024-01-27T01:49:16;4.00;99.90
16513;DHT22;8369;48.030;11.598;2024-01-27T01:51:42;4.00;99.90
16513;DHT22;8369;48.030;11.598;2024-01-27T01:54:08;4.00;99.90
16513;DHT22;8369;48.030;11.598;2024-01-27T01:56:34;4.00;99.90
16513;DHT22;8369;48.030;11.598;2024-01-27T01:59:01;4.00;99.90
16513;DHT22;8369;48.030;11.598;2024-01-27T02:01:28;4.00;99.90
16513;DHT22;8369;48.030;11.598;2024-01-27T02:03:57;4.10;99.90
16513;DHT22;8369;48.030;11.598;2024-01-27T02:06:24;4.10;99.90
16513;DHT22;8369;48.030;11.598;2024-01-27T02:08:50;4.10;99.90
16513;DHT22;8369;48.030;11.598;2024-01-27T02:11:18;4.10;99.90
16513;DHT22;8369;48.030;11.598;2024-01-27T02:13:44;4.10;99.90
16513;DHT22;8369;48.030;11.598;2024-01-27T02:16:11;4.10;99.90
16513;DHT22;8369;48.030;11.598;2024-01-27T02:18:37;4.00;99.90
16513;DHT22;8369;48.030;11.598;2024-01-27T02:21:03;4.00;99.90
16513;DHT22;8369;48.030;11.598;2024-01-27T02:23:29;4.00;99.90
16513;DHT22;8369;48.030;11.598;2024-01-27T02:25:55;4.00;99.90
16513;DHT22;8369;48.030;11.598;2024-01-27T02:28:23;4.00;99.90
16513;DHT22;8369;48.030;11.598;2024-01-27T02:30:50;4.00;99.90
16513;DHT22;8369;48.030;11.598;2024-01-27T02:33:16;4.00;99.90
16513;DHT22;8369;48.030;11.598;2024-01-27T02:35:42;3.90;99.90
16513;DHT22;8369;48.030;11.598;2024-01-27T02:38:09;3.90;99.90
16513;DHT22;8369;48.030;11.598;2024-01-27T02:40:35;3.90;99.90
16513;DHT22;8369;48.030;11.598;2024-01-27T02:43:02;3.90;99.90
16513;DHT22;8369;48.030;11.598;2024-01-27T02:45:29;3.90;99.90
16513;DHT22;8369;48.030;11.598;2024-01-27T02:47:55;3.90;99.90
16513;DHT22;8369;48.030;11.598;2024-01-27T02:50:21;3.90;99.90
16513;DHT22;8369;48.030;11.598;2024-01-27T02:52:47;3.90;99.90
16513;DHT22;8369;48.030;11.598;2024-01-27T02:55:13;3.90;99.90
16513;DHT22;8369;48.030;11.598;2024-01-27T02:57:43;3.90;99.90
16513;DHT22;8369;48.030;11.598;2024-01-27T03:00:10;3.90;99.90
16513;DHT22;8369;48.030;11.598;2024-01-27T03:02:36;3.80;99.90
16513;DHT22;8369;48.030;11.598;2024-01-27T03:05:02;3.80;99.90
16513;DHT22;8369;48.030;11.598;2024-01-27T03:07:28;3.80;99.90
16513;DHT22;8369;48.030;11.598;2024-01-27T03:09:54;3.80;99.90
16513;DHT22;8369;48.030;11.598;2024-01-27T03:12:21;3.80;99.90
16513;DHT22;8369;48.030;11.598;2024-01-27T03:14:50;3.80;99.90
16513;DHT22;8369;48.030;11.598;2024-01-27T03:17:16;3.80;99.90
16513;DHT22;8369;48.030;11.598;2024-01-27T03:19:43;3.70;99.90
16513;DHT22;8369;48.030;11.598;2024-01-27T03:22:09;3.70;99.90
16513;DHT22;8369;48.030;11.598;2024-01-27T03:24:37;3.70;99.90
16513;DHT22;8369;48.030;11.598;2024-01-27T03:27:03;3.70;99.90
16513;DHT22;8369;48.030;11.598;2024-01-27T03:29:29;3.70;99.90
16513;DHT22;8369;48.030;11.598;2024-01-27T03:31:55;3.70;99.90
16513;DHT22;8369;48.030;11.598;2024-01-27T03:34:21;3.70;99.90
16513;DHT22;8369;48.030;11.598;2024-01-27T03:36:50;3.60;99.90
16513;DHT22;8369;48.030;11.598;2024-01-27T03:39:17;3.60;99.90
16513;DHT22;8369;48.030;11.598;2024-01-27T03:41:43;3.60;99.90
16513;DHT22;8369;48.030;11.598;2024-01-27T03:44:09;3.60;99.90
16513;DHT22;8369;48.030;11.598;2024-01-27T03:46:36;3.50;99.90
16513;DHT22;8369;48.030;11.598;2024-01-27T03:49:04;3.50;99.90
16513;DHT22;8369;48.030;11.598;2024-01-27T03:51:30;3.50;99.90
16513;DHT22;8369;48.030;11.598;2024-01-27T03:53:57;3.40;99.90
16513;DHT22;8369;48.030;11.598;2024-01-27T03:56:24;3.40;99.90
16513;DHT22;8369;48.030;11.598;2024-01-27T03:58:50;3.40;99.90
16513;DHT22;8369;48.030;11.598;2024-01-27T04:01:16;3.40;99.90
16513;DHT22;8369;48.030;11.598;2024-01-27T04:03:42;3.40;99.90
16513;DHT22;8369;48.030;11.598;2024-01-27T04:06:08;3.40;99.90
16513;DHT22;8369;48.030;11.598;2024-01-27T04:08:35;3.30;99.90
16513;DHT22;8369;48.030;11.598;2024-01-27T04:11:01;3.30;99.90
16513;DHT22;8369;48.030;11.598;2024-01-27T04:13:27;3.30;99.90
16513;DHT22;8369;48.030;11.598;2024-01-27T04:15:53;3.30;99.90
16513;DHT22;8369;48.030;11.598;2024-01-27T04:18:19;3.30;99.90
16513;DHT22;8369;48.030;11.598;2024-01-27T04:20:46;3.20;99.90
16513;DHT22;8369;48.030;11.598;2024-01-27T04:23:12;3.20;99.90
16513;DHT22;8369;48.030;11.598;2024-01-27T04:25:38;3.10;99.90
16513;DHT22;8369;48.030;11.598;2024-01-27T04:28:04;3.00;99.90
16513;DHT22;8369;48.030;11.598;2024-01-27T04:30:31;3.00;99.90
16513;DHT22;8369;48.030;11.598;2024-01-27T04:32:57;2.90;99.90
16513;DHT22;8369;48.030;11.598;2024-01-27T04:35:23;2.90;99.90
16513;DHT22;8369;48.030;11.598;2024-01-27T04:37:49;2.80;99.90
16513;DHT22;8369;48.030;11.598;2024-01-27T04:40:17;2.80;99.90
16513;DHT22;8369;48.030;11.598;2024-01-27T04:42:43;2.70;99.90
16513;DHT22;8369;48.030;11.598;2024-01-27T04:45:09;2.70;99.90
16513;DHT22;8369;48.030;11.598;2024-01-27T04:47:35;2.60;99.90
16513;DHT22;8369;48.030;11.598;2024-01-27T04:50:04;2.60;99.90
16513;DHT22;8369;48.030;11.598;2024-01-27T04:52:30;2.60;99.90
16513;DHT22;8369;48.030;11.598;2024-01-27T04:55:02;2.50;99.90
16513;DHT22;8369;48.030;11.598;2024-01-27T04:57:28;2.50;99.90
16513;DHT22;8369;48.030;11.598;2024-01-27T04:59:54;2.40;99.90
16513;DHT22;8369;48.030;11.598;2024-01-27T05:02:22;2.40;99.90
16513;DHT22;8369;48.030;11.598;2024-01-27T05:04:48;2.30;99.90
16513;DHT22;8369;48.030;11.598;2024-01-27T05:07:15;2.30;99.90
16513;DHT22;8369;48.030;11.598;2024-01-27T05:09:41;2.20;99.90
16513;DHT22;8369;48.030;11.598;2024-01-27T05:12:07;2.20;99.90
16513;DHT22;8369;48.030;11.598;2024-01-27T05:14:35;2.20;99.90
16513;DHT22;8369;48.030;11.598;2024-01-27T05:17:01;2.10;99.90
16513;DHT22;8369;48.030;11.598;2024-01-27T05:19:30;2.10;99.90
16513;DHT22;8369;48.030;11.598;2024-01-27T05:21:55;2.10;99.90
16513;DHT22;8369;48.030;11.598;2024-01-27T05:24:23;2.00;99.90
16513;DHT22;8369;48.030;11.598;2024-01-27T05:26:49;2.00;99.90
16513;DHT22;8369;48.030;11.598;2024-01-27T05:29:15;1.90;99.90
16513;DHT22;8369;48.030;11.598;2024-01-27T05:31:41;1.90;99.90
16513;DHT22;8369;48.030;11.598;2024-01-27T05:34:10;1.90;99.90
16513;DHT22;8369;48.030;11.598;2024-01-27T05:36:37;1.90;99.90
16513;DHT22;8369;48.030;11.598;2024-01-27T05:39:04;1.90;99.90
16513;DHT22;8369;48.030;11.598;2024-01-27T05:41:31;1.80;99.90
16513;DHT22;8369;48.030;11.598;2024-01-27T05:43:57;1.80;99.90
16513;DHT22;8369;48.030;11.598;2024-01-27T05:46:24;1.80;99.90
16513;DHT22;8369;48.030;11.598;2024-01-27T05:48:51;1.80;99.90
16513;DHT22;8369;48.030;11.598;2024-01-27T05:51:23;1.80;99.90
16513;DHT22;8369;48.030;11.598;2024-01-27T05:53:49;1.70;99.90
16513;DHT22;8369;48.030;11.598;2024-01-27T05:56:16;1.70;99.90
16513;DHT22;8369;48.030;11.598;2024-01-27T05:58:46;1.60;99.90
16513;DHT22;8369;48.030;11.598;2024-01-27T06:01:13;1.60;99.90
16513;DHT22;8369;48.030;11.598;2024-01-27T06:03:42;1.60;99.90
16513;DHT22;8369;48.030;11.598;2024-01-27T06:06:10;1.50;99.90
16513;DHT22;8369;48.030;11.598;2024-01-27T06:08:36;1.50;99.90
16513;DHT22;8369;48.030;11.598;2024-01-27T06:11:02;1.50;99.90
16513;DHT22;8369;48.030;11.598;2024-01-27T06:13:29;1.50;99.90
16513;DHT22;8369;48.030;11.598;2024-01-27T06:15:56;1.40;99.90
16513;DHT22;8369;48.030;11.598;2024-01-27T06:18:23;1.40;99.90
16513;DHT22;8369;48.030;11.598;2024-01-27T06:20:49;1.40;99.90
16513;DHT22;8369;48.030;11.598;2024-01-27T06:23:17;1.40;99.90
16513;DHT22;8369;48.030;11.598;2024-01-27T06:25:43;1.40;99.90
16513;DHT22;8369;48.030;11.598;2024-01-27T06:28:09;1.40;99.90
16513;DHT22;8369;48.030;11.598;2024-01-27T06:30:35;1.40;99.90
16513;DHT22;8369;48.030;11.598;2024-01-27T06:33:03;1.40;99.90
16513;DHT22;8369;48.030;11.598;2024-01-27T06:35:29;1.40;99.90
16513;DHT22;8369;48.030;11.598;2024-01-27T06:37:55;1.30;99.90
16513;DHT22;8369;48.030;11.598;2024-01-27T06:40:21;1.30;99.90
16513;DHT22;8369;48.030;11.598;2024-01-27T06:42:47;1.30;99.90
16513;DHT22;8369;48.030;11.598;2024-01-27T06:45:14;1.30;99.90
16513;DHT22;8369;48.030;11.598;2024-01-27T06:47:40;1.30;99.90
16513;DHT22;8369;48.030;11.598;2024-01-27T06:50:08;1.30;99.90
16513;DHT22;8369;48.030;11.598;2024-01-27T06:52:35;1.30;99.90
16513;DHT22;8369;48.030;11.598;2024-01-27T06:55:01;1.30;99.90
16513;DHT22;8369;48.030;11.598;2024-01-27T06:57:28;1.20;99.90
16513;DHT22;8369;48.030;11.598;2024-01-27T06:59:54;1.20;99.90
16513;DHT22;8369;48.030;11.598;2024-01-27T07:02:28;1.20;99.90
16513;DHT22;8369;48.030;11.598;2024-01-27T07:04:55;1.20;99.90
16513;DHT22;8369;48.030;11.598;2024-01-27T07:07:28;1.20;99.90
16513;DHT22;8369;48.030;11.598;2024-01-27T07:09:55;1.20;99.90
16513;DHT22;8369;48.030;11.598;2024-01-27T07:12:21;1.20;99.90
16513;DHT22;8369;48.030;11.598;2024-01-27T07:14:47;1.20;99.90
16513;DHT22;8369;48.030;11.598;2024-01-27T07:17:16;1.20;99.90
16513;DHT22;8369;48.030;11.598;2024-01-27T07:19:42;1.10;99.90
16513;DHT22;8369;48.030;11.598;2024-01-27T07:22:08;1.10;99.90
16513;DHT22;8369;48.030;11.598;2024-01-27T07:24:34;1.20;99.90
16513;DHT22;8369;48.030;11.598;2024-01-27T07:27:01;1.20;99.90
16513;DHT22;8369;48.030;11.598;2024-01-27T07:29:28;1.20;99.90
16513;DHT22;8369;48.030;11.598;2024-01-27T07:31:54;1.20;99.90
16513;DHT22;8369;48.030;11.598;2024-01-27T07:34:21;1.20;99.90
16513;DHT22;8369;48.030;11.598;2024-01-27T07:36:47;1.30;99.90
16513;DHT22;8369;48.030;11.598;2024-01-27T07:39:15;1.30;99.90
16513;DHT22;8369;48.030;11.598;2024-01-27T07:41:41;1.30;99.90
16513;DHT22;8369;48.030;11.598;2024-01-27T07:44:14;1.30;99.90
16513;DHT22;8369;48.030;11.598;2024-01-27T07:46:43;1.40;99.90
16513;DHT22;8369;48.030;11.598;2024-01-27T07:49:11;1.40;99.90
16513;DHT22;8369;48.030;11.598;2024-01-27T07:51:39;1.40;99.90
16513;DHT22;8369;48.030;11.598;2024-01-27T07:54:05;1.50;99.90
16513;DHT22;8369;48.030;11.598;2024-01-27T07:56:32;1.50;99.90
16513;DHT22;8369;48.030;11.598;2024-01-27T07:59:02;1.50;99.90
16513;DHT22;8369;48.030;11.598;2024-01-27T08:01:28;1.60;99.90
16513;DHT22;8369;48.030;11.598;2024-01-27T08:03:54;1.60;99.90
16513;DHT22;8369;48.030;11.598;2024-01-27T08:06:28;1.70;99.90
16513;DHT22;8369;48.030;11.598;2024-01-27T08:08:55;1.70;99.90
16513;DHT22;8369;48.030;11.598;2024-01-27T08:11:21;1.80;99.90
16513;DHT22;8369;48.030;11.598;2024-01-27T08:13:47;1.90;99.90
16513;DHT22;8369;48.030;11.598;2024-01-27T08:16:14;1.90;99.90
16513;DHT22;8369;48.030;11.598;2024-01-27T08:18:40;2.00;99.90
16513;DHT22;8369;48.030;11.598;2024-01-27T08:21:08;2.10;99.90
16513;DHT22;8369;48.030;11.598;2024-01-27T08:23:34;2.20;99.90
16513;DHT22;8369;48.030;11.598;2024-01-27T08:26:01;2.20;99.90
16513;DHT22;8369;48.030;11.598;2024-01-27T08:28:27;2.30;99.90
16513;DHT22;8369;48.030;11.598;2024-01-27T08:30:54;2.30;99.90
16513;DHT22;8369;48.030;11.598;2024-01-27T08:33:21;2.40;99.90
16513;DHT22;8369;48.030;11.598;2024-01-27T08:35:47;2.50;99.90
16513;DHT22;8369;48.030;11.598;2024-01-27T08:38:16;2.60;99.90
16513;DHT22;8369;48.030;11.598;2024-01-27T08:40:43;2.70;99.90
16513;DHT22;8369;48.030;11.598;2024-01-27T08:43:10;2.90;99.90
16513;DHT22;8369;48.030;11.598;2024-01-27T08:45:37;3.00;99.90
16513;DHT22;8369;48.030;11.598;2024-01-27T08:48:06;3.10;99.90
16513;DHT22;8369;48.030;11.598;2024-01-27T08:50:32;3.30;99.90
16513;DHT22;8369;48.030;11.598;2024-01-27T08:52:59;3.40;99.90
16513;DHT22;8369;48.030;11.598;2024-01-27T08:55:25;3.50;99.90
16513;DHT22;8369;48.030;11.598;2024-01-27T08:57:51;3.60;99.90
16513;DHT22;8369;48.030;11.598;2024-01-27T09:00:17;3.70;99.90
16513;DHT22;8369;48.030;11.598;2024-01-27T09:02:44;3.80;99.90
16513;DHT22;8369;48.030;11.598;2024-01-27T09:05:10;3.90;99.90
16513;DHT22;8369;48.030;11.598;2024-01-27T09:07:37;4.00;99.90
16513;DHT22;8369;48.030;11.598;2024-01-27T09:10:03;4.10;99.90
16513;DHT22;8369;48.030;11.598;2024-01-27T09:12:30;4.20;99.90
16513;DHT22;8369;48.030;11.598;2024-01-27T09:14:56;4.30;99.90
16513;DHT22;8369;48.030;11.598;2024-01-27T09:17:22;4.30;99.90
16513;DHT22;8369;48.030;11.598;2024-01-27T09:19:49;4.40;99.90
16513;DHT22;8369;48.030;11.598;2024-01-27T09:22:15;4.50;99.90
16513;DHT22;8369;48.030;11.598;2024-01-27T09:24:42;4.50;99.90
16513;DHT22;8369;48.030;11.598;2024-01-27T09:27:08;4.60;99.90
16513;DHT22;8369;48.030;11.598;2024-01-27T09:29:34;4.70;99.90
16513;DHT22;8369;48.030;11.598;2024-01-27T09:32:01;4.70;99.90
16513;DHT22;8369;48.030;11.598;2024-01-27T09:34:27;4.70;99.90
16513;DHT22;8369;48.030;11.598;2024-01-27T09:36:54;4.80;99.90
16513;DHT22;8369;48.030;11.598;2024-01-27T09:39:20;4.80;99.90
16513;DHT22;8369;48.030;11.598;2024-01-27T09:41:48;4.90;99.90
16513;DHT22;8369;48.030;11.598;2024-01-27T09:44:18;5.00;99.90
16513;DHT22;8369;48.030;11.598;2024-01-27T09:46:46;5.10;99.90
16513;DHT22;8369;48.030;11.598;2024-01-27T09:49:14;5.10;99.90
16513;DHT22;8369;48.030;11.598;2024-01-27T09:51:44;5.20;99.90
16513;DHT22;8369;48.030;11.598;2024-01-27T09:54:11;5.20;99.90
16513;DHT22;8369;48.030;11.598;2024-01-27T09:56:40;5.30;99.90
16513;DHT22;8369;48.030;11.598;2024-01-27T09:59:09;5.30;99.90
16513;DHT22;8369;48.030;11.598;2024-01-27T10:01:35;5.30;99.90
16513;DHT22;8369;48.030;11.598;2024-01-27T10:04:03;5.40;99.90
16513;DHT22;8369;48.030;11.598;2024-01-27T10:06:30;5.40;99.90
16513;DHT22;8369;48.030;11.598;2024-01-27T10:08:56;5.50;99.90
16513;DHT22;8369;48.030;11.598;2024-01-27T10:11:25;5.60;99.90
16513;DHT22;8369;48.030;11.598;2024-01-27T10:14:23;5.70;99.90
16513;DHT22;8369;48.030;11.598;2024-01-27T10:16:53;5.70;99.90
16513;DHT22;8369;48.030;11.598;2024-01-27T10:19:24;5.80;99.90
16513;DHT22;8369;48.030;11.598;2024-01-27T10:22:00;5.80;99.90
16513;DHT22;8369;48.030;11.598;2024-01-27T10:24:33;5.80;99.90
16513;DHT22;8369;48.030;11.598;2024-01-27T10:27:02;5.90;99.90
16513;DHT22;8369;48.030;11.598;2024-01-27T10:29:30;6.00;99.90
16513;DHT22;8369;48.030;11.598;2024-01-27T10:32:11;5.90;99.90
16513;DHT22;8369;48.030;11.598;2024-01-27T10:34:37;6.00;99.90
16513;DHT22;8369;48.030;11.598;2024-01-27T10:37:04;6.00;99.90
16513;DHT22;8369;48.030;11.598;2024-01-27T10:39:31;6.00;99.90
16513;DHT22;8369;48.030;11.598;2024-01-27T10:42:01;6.00;99.90
16513;DHT22;8369;48.030;11.598;2024-01-27T10:44:33;6.00;99.90
16513;DHT22;8369;48.030;11.598;2024-01-27T10:47:02;6.00;99.90
16513;DHT22;8369;48.030;11.598;2024-01-27T10:49:32;5.90;99.90
16513;DHT22;8369;48.030;11.598;2024-01-27T10:52:01;6.00;99.90
16513;DHT22;8369;48.030;11.598;2024-01-27T10:54:32;6.00;99.90
16513;DHT22;8369;48.030;11.598;2024-01-27T10:57:06;6.00;99.90
16513;DHT22;8369;48.030;11.598;2024-01-27T10:59:47;6.00;99.90
16513;DHT22;8369;48.030;11.598;2024-01-27T11:02:24;6.10;99.90
16513;DHT22;8369;48.030;11.598;2024-01-27T11:04:51;6.10;99.90
16513;DHT22;8369;48.030;11.598;2024-01-27T11:07:21;6.20;99.90
16513;DHT22;8369;48.030;11.598;2024-01-27T11:09:50;6.20;99.90
16513;DHT22;8369;48.030;11.598;2024-01-27T11:12:21;6.20;99.90
16513;DHT22;8369;48.030;11.598;2024-01-27T11:14:51;6.30;99.90
16513;DHT22;8369;48.030;11.598;2024-01-27T11:17:18;6.30;99.90
16513;DHT22;8369;48.030;11.598;2024-01-27T11:19:49;6.40;99.90
16513;DHT22;8369;48.030;11.598;2024-01-27T11:22:27;6.40;99.90
16513;DHT22;8369;48.030;11.598;2024-01-27T11:25:13;6.40;99.90
16513;DHT22;8369;48.030;11.598;2024-01-27T11:27:41;6.50;99.90
16513;DHT22;8369;48.030;11.598;2024-01-27T11:30:30;6.50;99.90
16513;DHT22;8369;48.030;11.598;2024-01-27T11:33:02;6.50;99.90
16513;DHT22;8369;48.030;11.598;2024-01-27T11:35:35;6.50;99.90
16513;DHT22;8369;48.030;11.598;2024-01-27T11:38:02;6.50;99.90
16513;DHT22;8369;48.030;11.598;2024-01-27T11:40:32;6.60;99.90
16513;DHT22;8369;48.030;11.598;2024-01-27T11:43:03;6.70;99.90
16513;DHT22;8369;48.030;11.598;2024-01-27T11:45:30;6.70;99.90
16513;DHT22;8369;48.030;11.598;2024-01-27T11:48:00;6.80;99.90
16513;DHT22;8369;48.030;11.598;2024-01-27T11:50:28;6.80;99.90
16513;DHT22;8369;48.030;11.598;2024-01-27T11:52:56;6.80;99.90
16513;DHT22;8369;48.030;11.598;2024-01-27T11:55:23;6.80;99.90
16513;DHT22;8369;48.030;11.598;2024-01-27T11:57:49;6.90;99.90
16513;DHT22;8369;48.030;11.598;2024-01-27T12:00:19;6.90;99.90
16513;DHT22;8369;48.030;11.598;2024-01-27T12:02:50;7.00;99.90
16513;DHT22;8369;48.030;11.598;2024-01-27T12:05:19;6.90;99.90
16513;DHT22;8369;48.030;11.598;2024-01-27T12:07:46;6.90;99.90
16513;DHT22;8369;48.030;11.598;2024-01-27T12:10:13;7.00;99.90
16513;DHT22;8369;48.030;11.598;2024-01-27T12:12:39;7.00;99.90
16513;DHT22;8369;48.030;11.598;2024-01-27T12:15:08;7.00;99.90
16513;DHT22;8369;48.030;11.598;2024-01-27T12:17:36;7.00;99.90
16513;DHT22;8369;48.030;11.598;2024-01-27T12:20:04;7.10;99.90
16513;DHT22;8369;48.030;11.598;2024-01-27T12:22:40;7.10;99.90
16513;DHT22;8369;48.030;11.598;2024-01-27T12:25:10;7.10;99.90
16513;DHT22;8369;48.030;11.598;2024-01-27T12:27:47;7.10;99.90
16513;DHT22;8369;48.030;11.598;2024-01-27T12:30:14;7.10;99.90
16513;DHT22;8369;48.030;11.598;2024-01-27T12:32:42;7.10;99.90
16513;DHT22;8369;48.030;11.598;2024-01-27T12:35:09;7.10;99.90
16513;DHT22;8369;48.030;11.598;2024-01-27T12:37:36;7.20;99.90
16513;DHT22;8369;48.030;11.598;2024-01-27T12:40:15;7.20;99.90
16513;DHT22;8369;48.030;11.598;2024-01-27T12:42:47;7.20;99.90
16513;DHT22;8369;48.030;11.598;2024-01-27T12:45:14;7.20;99.90
16513;DHT22;8369;48.030;11.598;2024-01-27T12:47:41;7.20;99.90
16513;DHT22;8369;48.030;11.598;2024-01-27T12:50:09;7.30;99.90
16513;DHT22;8369;48.030;11.598;2024-01-27T12:52:36;7.30;99.90
16513;DHT22;8369;48.030;11.598;2024-01-27T12:55:08;7.20;99.90
16513;DHT22;8369;48.030;11.598;2024-01-27T12:57:35;7.20;99.90
16513;DHT22;8369;48.030;11.598;2024-01-27T13:00:03;7.20;99.90
16513;DHT22;8369;48.030;11.598;2024-01-27T13:02:36;7.20;99.90
16513;DHT22;8369;48.030;11.598;2024-01-27T13:05:05;7.10;99.90
16513;DHT22;8369;48.030;11.598;2024-01-27T13:07:31;7.10;99.90
16513;DHT22;8369;48.030;11.598;2024-01-27T13:10:01;7.10;99.90
16513;DHT22;8369;48.030;11.598;2024-01-27T13:12:31;7.10;99.90
16513;DHT22;8369;48.030;11.598;2024-01-27T13:14:57;7.00;99.90
16513;DHT22;8369;48.030;11.598;2024-01-27T13:17:28;7.00;99.90
16513;DHT22;8369;48.030;11.598;2024-01-27T13:19:54;7.00;99.90
16513;DHT22;8369;48.030;11.598;2024-01-27T13:22:22;7.00;99.90
16513;DHT22;8369;48.030;11.598;2024-01-27T13:24:53;7.00;99.90
16513;DHT22;8369;48.030;11.598;2024-01-27T13:27:21;7.00;99.90
16513;DHT22;8369;48.030;11.598;2024-01-27T13:30:10;7.00;99.90
16513;DHT22;8369;48.030;11.598;2024-01-27T13:32:44;7.00;99.90
16513;DHT22;8369;48.030;11.598;2024-01-27T13:35:16;7.00;99.90
16513;DHT22;8369;48.030;11.598;2024-01-27T13:37:46;7.00;99.90
16513;DHT22;8369;48.030;11.598;2024-01-27T13:40:34;7.00;99.90
16513;DHT22;8369;48.030;11.598;2024-01-27T13:43:35;7.00;99.90
16513;DHT22;8369;48.030;11.598;2024-01-27T13:46:03;7.00;99.90
16513;DHT22;8369;48.030;11.598;2024-01-27T13:48:35;6.90;99.90
16513;DHT22;8369;48.030;11.598;2024-01-27T13:51:03;7.00;99.90
16513;DHT22;8369;48.030;11.598;2024-01-27T13:53:36;7.00;99.90
16513;DHT22;8369;48.030;11.598;2024-01-27T13:56:02;7.00;99.90
16513;DHT22;8369;48.030;11.598;2024-01-27T13:58:30;7.00;99.90
16513;DHT22;8369;48.030;11.598;2024-01-27T14:00:57;7.00;99.90
16513;DHT22;8369;48.030;11.598;2024-01-27T14:03:25;7.00;99.90
16513;DHT22;8369;48.030;11.598;2024-01-27T14:05:51;7.00;99.90
16513;DHT22;8369;48.030;11.598;2024-01-27T14:08:19;7.00;99.90
16513;DHT22;8369;48.030;11.598;2024-01-27T14:10:46;6.90;99.90
16513;DHT22;8369;48.030;11.598;2024-01-27T14:13:14;6.90;99.90
16513;DHT22;8369;48.030;11.598;2024-01-27T14:15:42;6.90;99.00
16513;DHT22;8369;48.030;11.598;2024-01-27T14:18:09;6.80;99.10
16513;DHT22;8369;48.030;11.598;2024-01-27T14:20:40;6.80;99.90
16513;DHT22;8369;48.030;11.598;2024-01-27T14:23:06;6.80;99.60
16513;DHT22;8369;48.030;11.598;2024-01-27T14:25:33;6.80;99.90
16513;DHT22;8369;48.030;11.598;2024-01-27T14:27:59;6.80;98.40
16513;DHT22;8369;48.030;11.598;2024-01-27T14:30:26;6.70;97.90
16513;DHT22;8369;48.030;11.598;2024-01-27T14:32:52;6.70;99.40
16513;DHT22;8369;48.030;11.598;2024-01-27T14:35:18;6.70;99.80
16513;DHT22;8369;48.030;11.598;2024-01-27T14:37:45;6.60;99.90
16513;DHT22;8369;48.030;11.598;2024-01-27T14:40:11;6.60;99.90
16513;DHT22;8369;48.030;11.598;2024-01-27T14:42:39;6.60;99.90
16513;DHT22;8369;48.030;11.598;2024-01-27T14:45:07;6.60;99.90
16513;DHT22;8369;48.030;11.598;2024-01-27T14:47:34;6.50;99.90
16513;DHT22;8369;48.030;11.598;2024-01-27T14:50:01;6.50;99.90
16513;DHT22;8369;48.030;11.598;2024-01-27T14:52:27;6.50;99.90
16513;DHT22;8369;48.030;11.598;2024-01-27T14:54:54;6.50;99.90
16513;DHT22;8369;48.030;11.598;2024-01-27T14:57:21;6.50;99.90
16513;DHT22;8369;48.030;11.598;2024-01-27T14:59:48;6.40;99.60
16513;DHT22;8369;48.030;11.598;2024-01-27T15:02:13;6.40;99.90
16513;DHT22;8369;48.030;11.598;2024-01-27T15:04:42;6.40;99.90
16513;DHT22;8369;48.030;11.598;2024-01-27T15:07:09;6.30;99.90
16513;DHT22;8369;48.030;11.598;2024-01-27T15:09:41;6.30;99.90
16513;DHT22;8369;48.030;11.598;2024-01-27T15:12:09;6.30;99.90
16513;DHT22;8369;48.030;11.598;2024-01-27T15:14:35;6.30;99.90
16513;DHT22;8369;48.030;11.598;2024-01-27T15:17:01;6.20;99.90
16513;DHT22;8369;48.030;11.598;2024-01-27T15:19:28;6.20;99.90
16513;DHT22;8369;48.030;11.598;2024-01-27T15:21:54;6.20;99.90
16513;DHT22;8369;48.030;11.598;2024-01-27T15:24:20;6.10;99.90
16513;DHT22;8369;48.030;11.598;2024-01-27T15:26:49;6.10;99.90
16513;DHT22;8369;48.030;11.598;2024-01-27T15:29:15;6.10;99.90
16513;DHT22;8369;48.030;11.598;2024-01-27T15:31:45;6.00;99.90
16513;DHT22;8369;48.030;11.598;2024-01-27T15:34:12;6.00;99.90
16513;DHT22;8369;48.030;11.598;2024-01-27T15:36:40;6.00;99.90
16513;DHT22;8369;48.030;11.598;2024-01-27T15:39:06;5.90;99.90
16513;DHT22;8369;48.030;11.598;2024-01-27T15:41:35;5.80;99.90
16513;DHT22;8369;48.030;11.598;2024-01-27T15:44:01;5.80;99.90
16513;DHT22;8369;48.030;11.598;2024-01-27T15:46:27;5.70;99.90
16513;DHT22;8369;48.030;11.598;2024-01-27T15:48:54;5.70;99.90